Time;durP1;ratioP1;P1;durP2;ratioP2;P2;SDS_P1;SDS_P2;PMS_P1;PMS_P2;Temp;Humidity;BMP_temperature;BMP_pressure;BME280_temperature;BME280_humidity;BME280_pressure;Samples;Min_cycle;Max_cycle;Signal;HPM_P1;HPM_P2
2022/07/06 00:02:16;;;;;;;9.80;1.70;;;18.20;99.90;;;;;;5130381;28;20511;-72
2022/07/06 00:04:42;;;;;;;10.73;1.53;;;18.20;99.90;;;;;;5130944;28;20447;-72
2022/07/06 00:07:09;;;;;;;10.60;1.63;;;18.50;99.90;;;;;;5130852;28;20447;-72
2022/07/06 00:09:37;;;;;;;9.67;1.63;;;18.50;99.90;;;;;;5131227;28;20447;-72
2022/07/06 00:12:05;;;;;;;9.50;1.57;;;18.30;99.90;;;;;;5138453;27;20944;-73
2022/07/06 00:14:32;;;;;;;9.53;1.60;;;18.20;99.90;;;;;;5134513;27;21275;-72
2022/07/06 00:16:59;;;;;;;10.00;1.50;;;18.20;99.90;;;;;;5134590;27;20481;-72
2022/07/06 00:19:26;;;;;;;9.23;1.53;;;18.50;99.90;;;;;;5134650;27;20439;-72
2022/07/06 00:21:52;;;;;;;10.40;1.63;;;18.40;99.90;;;;;;5125670;27;20454;-73
2022/07/06 00:24:20;;;;;;;8.90;1.37;;;18.50;99.90;;;;;;5134324;27;20798;-72
2022/07/06 00:26:49;;;;;;;10.13;1.40;;;18.50;99.90;;;;;;5134250;27;20446;-72
2022/07/06 00:29:15;;;;;;;10.13;1.90;;;18.40;99.90;;;;;;5133802;27;20447;-73
2022/07/06 00:31:42;;;;;;;12.03;1.80;;;18.50;99.90;;;;;;5134195;27;20451;-73
2022/07/06 00:34:09;;;;;;;10.87;1.73;;;18.50;99.90;;;;;;5133473;27;20532;-71
2022/07/06 00:36:36;;;;;;;9.50;1.67;;;18.60;99.90;;;;;;5134952;27;20478;-73
2022/07/06 00:39:03;;;;;;;9.23;1.83;;;18.40;99.90;;;;;;5133732;27;20955;-72
2022/07/06 00:41:29;;;;;;;9.80;1.40;;;18.10;99.90;;;;;;5134330;27;20530;-72
2022/07/06 00:43:58;;;;;;;11.27;1.97;;;17.90;99.90;;;;;;5133003;27;20956;-72
2022/07/06 00:46:29;;;;;;;9.10;1.50;;;18.00;99.90;;;;;;5133909;27;21016;-72
2022/07/06 00:48:56;;;;;;;11.30;1.77;;;18.00;99.90;;;;;;5129749;27;20442;-74
2022/07/06 00:51:26;;;;;;;9.77;1.70;;;18.00;99.90;;;;;;5134093;27;20972;-73
2022/07/06 00:53:55;;;;;;;9.50;1.77;;;17.90;99.90;;;;;;5133956;27;20435;-73
2022/07/06 00:56:22;;;;;;;10.13;1.80;;;17.90;99.90;;;;;;5134126;27;20564;-72
2022/07/06 00:58:49;;;;;;;10.00;1.80;;;17.70;99.90;;;;;;5134239;27;20443;-73
2022/07/06 01:01:17;;;;;;;9.53;1.83;;;17.50;99.90;;;;;;5132547;27;20447;-73
2022/07/06 01:03:44;;;;;;;9.30;1.67;;;17.50;99.90;;;;;;5121935;27;20461;-73
2022/07/06 01:06:11;;;;;;;9.20;1.53;;;17.70;99.90;;;;;;5132890;27;20455;-73
2022/07/06 01:08:39;;;;;;;9.33;1.60;;;17.70;99.90;;;;;;5133986;27;20442;-73
2022/07/06 01:11:06;;;;;;;10.73;2.00;;;17.90;99.90;;;;;;5133816;27;20443;-72
2022/07/06 01:13:34;;;;;;;9.50;1.70;;;17.70;99.90;;;;;;5136954;27;20447;-72
2022/07/06 01:16:01;;;;;;;9.57;2.00;;;17.50;99.90;;;;;;5129300;27;20471;-72
2022/07/06 01:18:29;;;;;;;9.30;1.30;;;17.50;99.90;;;;;;5133020;27;20443;-73
2022/07/06 01:21:08;;;;;;;11.03;1.90;;;17.70;99.90;;;;;;5133023;27;20808;-72
2022/07/06 01:23:40;;;;;;;10.27;1.80;;;17.80;99.90;;;;;;5132438;27;20470;-72
2022/07/06 01:26:09;;;;;;;10.13;2.03;;;17.70;99.90;;;;;;5132871;27;20457;-72
2022/07/06 01:28:36;;;;;;;10.20;2.03;;;17.70;99.90;;;;;;5129526;27;20447;-72
2022/07/06 01:31:03;;;;;;;10.00;1.87;;;17.80;99.90;;;;;;5132977;27;20451;-72
2022/07/06 01:33:30;;;;;;;9.80;1.67;;;17.80;99.90;;;;;;5132681;27;20481;-72
2022/07/06 01:35:56;;;;;;;10.30;1.97;;;17.80;99.90;;;;;;5133359;27;20482;-71
2022/07/06 01:38:25;;;;;;;13.37;1.73;;;17.60;99.90;;;;;;5133481;27;20543;-72
2022/07/06 01:40:52;;;;;;;11.30;2.20;;;17.90;99.90;;;;;;5133284;27;20474;-74
2022/07/06 01:43:18;;;;;;;10.10;1.90;;;17.90;99.90;;;;;;5126470;27;20444;-74
2022/07/06 01:45:45;;;;;;;9.90;1.80;;;18.10;99.90;;;;;;5133107;27;20554;-74
2022/07/06 01:48:12;;;;;;;10.60;1.87;;;18.00;99.90;;;;;;5132406;27;20937;-73
2022/07/06 01:50:39;;;;;;;11.40;1.90;;;18.20;99.90;;;;;;5133165;27;20443;-73
2022/07/06 01:53:06;;;;;;;9.40;1.60;;;18.40;99.90;;;;;;5131897;27;20456;-72
2022/07/06 01:55:34;;;;;;;9.37;1.47;;;18.50;99.90;;;;;;5133038;27;20469;-72
2022/07/06 01:58:01;;;;;;;10.27;1.90;;;18.60;99.90;;;;;;5133090;27;20482;-72
2022/07/06 02:00:27;;;;;;;9.83;1.50;;;18.60;99.90;;;;;;5132878;27;20534;-73
2022/07/06 02:02:54;;;;;;;10.70;1.57;;;18.60;99.90;;;;;;5132359;27;20955;-72
2022/07/06 02:05:21;;;;;;;10.30;1.80;;;18.60;99.90;;;;;;5132988;27;20446;-73
2022/07/06 02:07:48;;;;;;;9.50;1.60;;;18.40;99.90;;;;;;5132579;27;20447;-73
2022/07/06 02:10:15;;;;;;;9.90;1.80;;;18.30;99.90;;;;;;5131528;27;20462;-72
2022/07/06 02:12:44;;;;;;;9.70;1.80;;;18.10;99.90;;;;;;5135362;27;20455;-72
2022/07/06 02:15:11;;;;;;;10.57;2.40;;;18.40;99.90;;;;;;5131658;27;20531;-72
2022/07/06 02:17:38;;;;;;;10.47;1.93;;;18.50;99.90;;;;;;5132410;27;20562;-73
2022/07/06 02:20:06;;;;;;;9.13;1.60;;;18.30;99.90;;;;;;5131874;27;20431;-73
2022/07/06 02:22:33;;;;;;;10.37;1.90;;;18.30;99.90;;;;;;5132187;27;20447;-73
2022/07/06 02:25:00;;;;;;;9.97;1.80;;;18.20;99.90;;;;;;5132969;27;20454;-74
2022/07/06 02:27:27;;;;;;;9.80;1.60;;;18.30;99.90;;;;;;5133258;27;21106;-74
2022/07/06 02:29:55;;;;;;;9.77;1.83;;;18.40;99.90;;;;;;5132970;27;20458;-73
2022/07/06 02:32:22;;;;;;;9.47;1.57;;;18.50;99.90;;;;;;5132462;27;20446;-73
2022/07/06 02:34:49;;;;;;;10.17;2.30;;;18.50;99.90;;;;;;5131493;27;20554;-73
2022/07/06 02:37:16;;;;;;;9.27;1.50;;;18.50;99.90;;;;;;5131462;27;20478;-73
2022/07/06 02:39:43;;;;;;;10.10;1.83;;;18.60;99.90;;;;;;5131828;27;20929;-72
2022/07/06 02:42:10;;;;;;;11.07;3.20;;;18.50;99.90;;;;;;5130976;27;20447;-73
2022/07/06 02:44:37;;;;;;;9.90;1.93;;;18.50;99.90;;;;;;5132316;27;20454;-73
2022/07/06 02:47:05;;;;;;;9.87;1.50;;;18.50;99.90;;;;;;5131348;27;20534;-72
2022/07/06 02:49:32;;;;;;;9.60;1.80;;;18.50;99.90;;;;;;5132012;27;20447;-73
2022/07/06 02:51:59;;;;;;;9.37;1.47;;;18.50;99.90;;;;;;5130892;27;20475;-72
2022/07/06 02:54:26;;;;;;;9.60;1.80;;;18.40;99.90;;;;;;5132226;27;20478;-73
2022/07/06 02:56:53;;;;;;;9.20;1.47;;;18.40;99.90;;;;;;5131517;27;20485;-73
2022/07/06 02:59:20;;;;;;;11.23;1.70;;;18.30;99.90;;;;;;5131600;28;20481;-73
2022/07/06 03:01:47;;;;;;;9.70;1.80;;;18.20;99.90;;;;;;5131115;28;20461;-73
2022/07/06 03:04:15;;;;;;;9.37;1.70;;;18.40;99.90;;;;;;5131228;28;20793;-73
2022/07/06 03:06:42;;;;;;;9.20;1.60;;;18.30;99.90;;;;;;5132228;28;20455;-73
2022/07/06 03:09:09;;;;;;;10.43;2.10;;;18.40;99.90;;;;;;5131227;28;20870;-73
2022/07/06 03:11:36;;;;;;;10.50;1.53;;;18.20;99.90;;;;;;5131762;27;20561;-73
2022/07/06 03:14:03;;;;;;;9.60;1.83;;;18.10;99.90;;;;;;5130370;28;20442;-72
2022/07/06 03:16:30;;;;;;;11.00;1.93;;;17.90;99.90;;;;;;5132037;28;20486;-72
2022/07/06 03:18:58;;;;;;;10.60;2.27;;;17.80;99.90;;;;;;5131026;28;20787;-72
2022/07/06 03:21:26;;;;;;;10.33;2.07;;;17.80;99.90;;;;;;5131685;28;20459;-72
2022/07/06 03:23:53;;;;;;;9.80;1.80;;;17.60;99.90;;;;;;5131545;28;20439;-73
2022/07/06 03:26:20;;;;;;;9.27;1.73;;;17.30;99.90;;;;;;5132036;28;20479;-73
2022/07/06 03:28:47;;;;;;;9.47;2.03;;;17.30;99.90;;;;;;5131233;28;20539;-72
2022/07/06 03:31:14;;;;;;;9.10;1.40;;;17.00;99.90;;;;;;5130835;28;20955;-72
2022/07/06 03:33:41;;;;;;;9.80;2.00;;;16.90;99.90;;;;;;5130744;28;20470;-72
2022/07/06 03:36:08;;;;;;;10.83;1.60;;;16.80;99.90;;;;;;5130887;28;20985;-72
2022/07/06 03:38:37;;;;;;;13.97;1.70;;;16.70;99.90;;;;;;5131086;28;20473;-72
2022/07/06 03:41:04;;;;;;;11.10;2.20;;;16.70;99.90;;;;;;5131269;28;20792;-72
2022/07/06 03:43:31;;;;;;;10.57;2.00;;;16.60;99.90;;;;;;5130342;28;20952;-72
2022/07/06 03:45:58;;;;;;;10.27;1.73;;;16.80;99.90;;;;;;5130604;27;20450;-72
2022/07/06 03:48:24;;;;;;;10.20;1.80;;;16.70;99.90;;;;;;5135386;27;20448;-74
2022/07/06 03:50:51;;;;;;;10.50;1.90;;;16.70;99.90;;;;;;5135778;27;20454;-72
2022/07/06 03:53:18;;;;;;;10.83;2.10;;;16.50;99.90;;;;;;5134333;27;20451;-72
2022/07/06 03:56:27;;;;;;;12.10;2.17;;;16.40;99.90;;;;;;5135319;27;20459;-72
2022/07/06 03:58:34;;;;;;;13.63;2.00;;;16.20;99.90;;;;;;5134048;27;20491;-72
2022/07/06 04:01:01;;;;;;;10.20;1.50;;;16.30;1.00;;;;;;5134093;27;20444;-72
2022/07/06 04:03:28;;;;;;;15.70;2.10;;;16.40;99.90;;;;;;5134757;27;20798;-72
2022/07/06 04:05:55;;;;;;;10.13;1.90;;;16.50;99.90;;;;;;5134629;27;20478;-71
2022/07/06 04:08:22;;;;;;;11.03;2.23;;;16.30;99.90;;;;;;5134979;27;20544;-72
2022/07/06 04:10:50;;;;;;;10.40;1.90;;;16.30;1.00;;;;;;5135136;27;20539;-74
2022/07/06 04:13:17;;;;;;;12.30;2.07;;;16.40;99.90;;;;;;5138626;27;21001;-73
2022/07/06 04:15:44;;;;;;;10.53;1.87;;;16.30;99.90;;;;;;5134480;27;20453;-73
2022/07/06 04:18:10;;;;;;;11.70;2.40;;;16.20;1.00;;;;;;5134540;27;21016;-74
2022/07/06 04:20:37;;;;;;;10.07;1.57;;;16.30;1.00;;;;;;5135206;27;20443;-72
2022/07/06 04:23:04;;;;;;;10.20;1.90;;;16.20;1.00;;;;;;5133648;27;20463;-73
2022/07/06 04:25:31;;;;;;;10.43;1.90;;;16.40;1.00;;;;;;5134239;27;20445;-73
2022/07/06 04:28:00;;;;;;;11.80;2.60;;;16.40;1.00;;;;;;5133605;27;20805;-72
2022/07/06 04:30:27;;;;;;;10.17;1.63;;;16.60;1.00;;;;;;5133848;27;20940;-66
2022/07/06 04:32:55;;;;;;;11.83;2.33;;;16.40;1.00;;;;;;5134561;27;20524;-71
2022/07/06 04:35:22;;;;;;;12.53;2.40;;;16.70;1.00;;;;;;5134639;27;20956;-72
2022/07/06 04:37:49;;;;;;;11.27;2.10;;;16.80;99.90;;;;;;5134996;27;20491;-74
2022/07/06 04:40:16;;;;;;;12.17;2.10;;;16.80;99.90;;;;;;5134243;27;20457;-73
2022/07/06 04:42:43;;;;;;;10.60;2.00;;;16.90;99.90;;;;;;5134100;27;20456;-73
2022/07/06 04:45:12;;;;;;;10.83;2.10;;;16.90;99.90;;;;;;5133554;27;20913;-72
2022/07/06 04:47:39;;;;;;;10.70;2.07;;;16.90;99.90;;;;;;5134738;27;20485;-71
2022/07/06 04:50:07;;;;;;;13.07;2.03;;;16.70;99.90;;;;;;5133793;27;20504;-72
2022/07/06 04:52:34;;;;;;;15.70;2.77;;;17.00;99.90;;;;;;5134145;27;20449;-73
2022/07/06 04:55:01;;;;;;;11.60;2.23;;;17.40;99.90;;;;;;5133658;27;20443;-73
2022/07/06 04:57:29;;;;;;;11.17;2.03;;;17.50;99.90;;;;;;5134014;27;20559;-73
2022/07/06 04:59:56;;;;;;;10.47;1.70;;;17.50;99.90;;;;;;5132489;27;20504;-76
2022/07/06 05:02:24;;;;;;;10.87;2.20;;;18.00;99.90;;;;;;5134129;27;20542;-76
2022/07/06 05:04:51;;;;;;;11.50;2.37;;;17.80;99.90;;;;;;5134457;27;20524;-76
2022/07/06 05:07:18;;;;;;;10.40;2.00;;;17.90;99.90;;;;;;5135016;27;20447;-73
2022/07/06 05:09:45;;;;;;;12.20;2.20;;;18.20;99.90;;;;;;5134104;27;20455;-72
2022/07/06 05:12:12;;;;;;;12.03;2.70;;;18.00;99.90;;;;;;5134734;27;20770;-71
2022/07/06 05:14:39;;;;;;;11.40;2.30;;;17.60;99.90;;;;;;5133759;27;20538;-71
2022/07/06 05:17:06;;;;;;;11.40;2.50;;;17.80;99.90;;;;;;5132939;27;20525;-70
2022/07/06 05:19:34;;;;;;;12.00;2.73;;;17.60;99.90;;;;;;5133793;27;20507;-70
2022/07/06 05:22:01;;;;;;;10.57;2.33;;;17.70;99.90;;;;;;5132880;27;20458;-70
2022/07/06 05:24:28;;;;;;;11.80;2.30;;;17.70;99.90;;;;;;5133778;27;20530;-70
2022/07/06 05:26:55;;;;;;;13.93;2.00;;;17.80;99.90;;;;;;5133384;27;20447;-71
2022/07/06 05:29:22;;;;;;;13.37;2.23;;;17.70;99.90;;;;;;5133413;27;20937;-70
2022/07/06 05:31:50;;;;;;;11.10;2.47;;;17.90;99.90;;;;;;5133189;27;20550;-71
2022/07/06 05:34:16;;;;;;;11.00;2.60;;;18.10;99.90;;;;;;5132862;27;20997;-70
2022/07/06 05:36:45;;;;;;;10.33;2.20;;;18.10;99.90;;;;;;5133780;27;20482;-71
2022/07/06 05:39:12;;;;;;;11.00;2.53;;;17.60;99.90;;;;;;5119328;27;20478;-70
2022/07/06 05:41:38;;;;;;;11.00;2.30;;;17.70;99.90;;;;;;5132901;27;20447;-72
2022/07/06 05:44:05;;;;;;;11.27;2.33;;;17.40;99.90;;;;;;5132951;27;20982;-72
2022/07/06 05:46:32;;;;;;;11.87;2.27;;;17.60;99.90;;;;;;5133300;27;20552;-70
2022/07/06 05:51:45;;;;;;;12.70;2.93;;;17.60;99.90;;;;;;5132712;27;20429;-70
2022/07/06 05:54:12;;;;;;;12.73;2.40;;;17.70;99.90;;;;;;5132781;27;20469;-70
2022/07/06 05:56:39;;;;;;;11.10;2.83;;;17.90;99.90;;;;;;5133239;27;20447;-69
2022/07/06 05:59:06;;;;;;;11.57;2.97;;;17.70;99.90;;;;;;5132667;27;20501;-70
2022/07/06 06:01:32;;;;;;;11.70;2.43;;;17.70;99.90;;;;;;5132552;27;20978;-71
2022/07/06 06:03:59;;;;;;;11.57;2.00;;;17.90;99.90;;;;;;5132604;27;20454;-70
2022/07/06 06:06:26;;;;;;;11.30;2.07;;;18.10;99.90;;;;;;5132728;27;20929;-71
2022/07/06 06:08:55;;;;;;;11.40;2.60;;;17.90;99.90;;;;;;5132843;27;20451;-70
2022/07/06 06:11:22;;;;;;;11.80;2.70;;;17.90;99.90;;;;;;5135793;27;20506;-71
2022/07/06 06:13:48;;;;;;;11.43;2.47;;;18.00;99.90;;;;;;5141634;27;20802;-71
2022/07/06 06:16:16;;;;;;;11.27;2.10;;;18.10;99.90;;;;;;5132193;27;20465;-70
2022/07/06 06:18:43;;;;;;;12.80;2.00;;;18.20;99.90;;;;;;5132805;27;20870;-70
2022/07/06 06:21:11;;;;;;;11.67;2.40;;;18.20;99.90;;;;;;5132058;27;20453;-70
2022/07/06 06:23:37;;;;;;;11.03;2.50;;;18.10;99.90;;;;;;5132908;27;20443;-70
2022/07/06 06:26:06;;;;;;;12.70;2.57;;;18.30;99.90;;;;;;5131996;27;20802;-70
2022/07/06 06:28:33;;;;;;;11.33;2.00;;;18.30;99.90;;;;;;5132304;27;20534;-71
2022/07/06 06:31:00;;;;;;;10.00;1.80;;;18.50;99.90;;;;;;5131984;27;20515;-70
2022/07/06 06:33:27;;;;;;;11.60;2.90;;;18.60;99.90;;;;;;5131744;27;20481;-70
2022/07/06 06:35:54;;;;;;;10.03;1.83;;;18.30;99.90;;;;;;5132680;27;20449;-70
2022/07/06 06:38:25;;;;;;;10.17;1.80;;;18.50;99.90;;;;;;5132567;27;20486;-71
2022/07/06 06:40:53;;;;;;;10.53;2.03;;;18.40;99.90;;;;;;5119964;27;20442;-71
2022/07/06 06:43:22;;;;;;;10.60;2.20;;;18.50;99.90;;;;;;5132282;27;20446;-71
2022/07/06 06:45:48;;;;;;;10.80;2.60;;;18.20;99.90;;;;;;5132336;27;20443;-70
2022/07/06 06:48:17;;;;;;;14.67;2.00;;;18.40;99.90;;;;;;5131805;27;20883;-71
2022/07/06 06:50:44;;;;;;;12.30;2.70;;;18.50;99.90;;;;;;5132064;27;20990;-71
2022/07/06 06:53:11;;;;;;;13.13;3.07;;;18.70;99.90;;;;;;5131087;27;20937;-71
2022/07/06 06:55:38;;;;;;;10.90;2.20;;;18.80;99.90;;;;;;5132418;27;20450;-71
2022/07/06 06:58:05;;;;;;;10.90;2.40;;;18.80;99.90;;;;;;5131483;27;20486;-71
2022/07/06 07:00:33;;;;;;;10.80;2.50;;;18.90;99.90;;;;;;5132255;27;20447;-71
2022/07/06 07:03:00;;;;;;;11.40;2.87;;;19.00;99.90;;;;;;5131392;28;20817;-71
2022/07/06 07:05:27;;;;;;;14.10;2.77;;;19.10;99.90;;;;;;5132384;28;20458;-71
2022/07/06 07:07:58;;;;;;;10.97;2.33;;;19.00;99.90;;;;;;5132122;28;20459;-71
2022/07/06 07:10:25;;;;;;;11.40;2.40;;;19.10;99.90;;;;;;5133109;28;20438;-69
2022/07/06 07:12:53;;;;;;;12.97;2.10;;;19.20;99.90;;;;;;5146499;27;20455;-70
2022/07/06 07:15:19;;;;;;;9.60;1.90;;;19.10;99.90;;;;;;5132577;28;20458;-70
2022/07/06 07:17:48;;;;;;;11.50;2.63;;;19.10;99.90;;;;;;5132187;28;20490;-70
2022/07/06 07:20:14;;;;;;;11.30;2.30;;;19.10;99.90;;;;;;5131645;28;20825;-70
2022/07/06 07:22:41;;;;;;;13.50;2.40;;;19.30;99.90;;;;;;5134541;27;20455;-70
2022/07/06 07:25:08;;;;;;;11.97;2.30;;;19.40;99.90;;;;;;5135953;27;20511;-70
2022/07/06 07:27:35;;;;;;;9.67;1.77;;;19.50;99.90;;;;;;5135926;27;20545;-70
2022/07/06 07:30:02;;;;;;;13.00;1.80;;;19.30;99.90;;;;;;5135495;27;20453;-70
2022/07/06 07:32:29;;;;;;;10.93;2.37;;;19.10;99.90;;;;;;5135259;27;20545;-70
2022/07/06 07:34:57;;;;;;;13.53;2.37;;;19.30;99.90;;;;;;5135614;27;20482;-71
2022/07/06 07:37:24;;;;;;;10.60;2.83;;;19.20;99.90;;;;;;5136090;27;20529;-70
2022/07/06 07:39:51;;;;;;;10.03;2.13;;;19.40;99.90;;;;;;5136038;27;20487;-70
2022/07/06 07:42:18;;;;;;;10.20;2.30;;;19.50;99.90;;;;;;5134525;27;20915;-71
2022/07/06 07:44:45;;;;;;;10.27;1.93;;;19.60;99.90;;;;;;5135379;27;20453;-70
2022/07/06 07:47:12;;;;;;;10.70;1.90;;;19.60;99.90;;;;;;5134772;27;20451;-70
2022/07/06 07:49:39;;;;;;;12.50;2.63;;;19.60;99.90;;;;;;5135768;27;20450;-70
2022/07/06 07:52:08;;;;;;;10.97;2.20;;;19.70;99.90;;;;;;5134699;27;20534;-70
2022/07/06 07:54:35;;;;;;;9.47;2.00;;;19.80;99.90;;;;;;5135825;27;20439;-69
2022/07/06 07:57:02;;;;;;;11.10;2.43;;;19.90;99.90;;;;;;5134802;27;20447;-71
2022/07/06 07:59:29;;;;;;;9.70;1.90;;;20.10;99.90;;;;;;5135297;27;20497;-70
2022/07/06 08:01:56;;;;;;;12.20;2.30;;;20.00;99.90;;;;;;5134026;27;20463;-70
2022/07/06 08:04:23;;;;;;;10.83;2.13;;;19.90;99.90;;;;;;5135623;27;20446;-70
2022/07/06 08:06:49;;;;;;;9.57;2.33;;;19.90;99.90;;;;;;5135768;27;20886;-71
2022/07/06 08:09:18;;;;;;;9.70;2.37;;;19.90;99.90;;;;;;5134850;27;20451;-70
2022/07/06 08:11:45;;;;;;;10.27;2.37;;;20.00;99.90;;;;;;5141580;27;20954;-70
2022/07/06 08:14:14;;;;;;;11.10;2.37;;;19.90;99.90;;;;;;5139974;27;20443;-71
2022/07/06 08:16:40;;;;;;;10.50;2.20;;;20.00;99.90;;;;;;5134953;27;20453;-71
2022/07/06 08:19:07;;;;;;;9.97;1.77;;;20.20;99.90;;;;;;5134526;27;20482;-71
2022/07/06 08:21:34;;;;;;;16.60;2.90;;;20.30;99.90;;;;;;5134846;27;20529;-70
2022/07/06 08:24:01;;;;;;;10.00;2.17;;;20.40;99.90;;;;;;5134381;27;20447;-71
2022/07/06 08:26:30;;;;;;;10.37;2.40;;;20.50;99.90;;;;;;5135690;27;20885;-70
2022/07/06 08:28:57;;;;;;;12.20;2.40;;;20.50;99.90;;;;;;5134557;27;20663;-70
2022/07/06 08:31:24;;;;;;;10.57;2.03;;;20.50;99.90;;;;;;5134186;27;20457;-70
2022/07/06 08:33:53;;;;;;;9.97;2.03;;;;;;;;;;5133415;27;20475;-70
2022/07/06 08:36:20;;;;;;;9.80;2.00;;;;;;;;;;5134601;27;20458;-70
2022/07/06 08:38:47;;;;;;;11.30;2.73;;;;;;;;;;5134768;27;20570;-71
2022/07/06 08:41:16;;;;;;;11.53;2.23;;;;;;;;;;5133912;27;20454;-70
2022/07/06 08:43:44;;;;;;;11.33;2.60;;;;;;;;;;5134727;27;20504;-70
2022/07/06 08:46:14;;;;;;;11.60;2.27;;;;;;;;;;5134102;27;20534;-70
2022/07/06 08:48:42;;;;;;;10.30;1.90;;;;;;;;;;5134475;27;20450;-70
2022/07/06 08:51:09;;;;;;;10.73;2.37;;;;;;;;;;5133881;27;20550;-71
2022/07/06 08:53:36;;;;;;;12.10;2.30;;;;;;;;;;5134661;27;20447;-70
2022/07/06 08:56:03;;;;;;;11.70;2.13;;;;;;;;;;5133718;27;20447;-70
2022/07/06 08:58:31;;;;;;;10.20;2.33;;;;;;;;;;5134463;27;20475;-71
2022/07/06 09:01:00;;;;;;;10.20;2.00;;;;;;;;;;5133154;27;20957;-70
2022/07/06 09:03:28;;;;;;;10.50;2.30;;;;;;;;;;5134603;27;20455;-70
2022/07/06 09:05:58;;;;;;;13.83;3.07;;;;;;;;;;5134056;27;20448;-70
2022/07/06 09:08:26;;;;;;;10.17;2.60;;;;;;;;;;5120734;27;20503;-71
2022/07/06 09:10:53;;;;;;;10.90;2.50;;;;;;;;;;5133767;27;20984;-70
2022/07/06 09:13:21;;;;;;;11.80;2.17;;;;;;;;;;5146839;27;20503;-71
2022/07/06 09:15:48;;;;;;;10.63;2.00;;;;;;;;;;5133682;27;20770;-71
2022/07/06 09:18:16;;;;;;;9.57;2.03;;;;;;;;;;5133554;27;20723;-71
2022/07/06 09:20:43;;;;;;;10.37;1.70;;;;;;;;;;5134140;27;20447;-71
2022/07/06 09:23:10;;;;;;;10.73;2.27;;;;;;;;;;5132968;27;20453;-71
2022/07/06 09:25:38;;;;;;;11.10;2.50;;;;;;;;;;5133533;27;20474;-71
2022/07/06 09:28:06;;;;;;;11.10;2.20;;;;;;;;;;5133131;27;20451;-71
2022/07/06 09:30:33;;;;;;;9.73;2.30;;;;;;;;;;5133519;27;20799;-71
2022/07/06 09:33:00;;;;;;;9.50;2.00;;;;;;;;;;5132241;27;20455;-71
2022/07/06 09:35:30;;;;;;;11.70;1.97;;;;;;;;;;5133447;27;20449;-69
2022/07/06 09:38:07;;;;;;;10.43;2.40;;;;;;;;;;5132804;27;20443;-70
2022/07/06 09:40:36;;;;;;;12.03;2.60;;;20.50;99.90;;;;;;5133576;27;20439;-70
2022/07/06 09:43:14;;;;;;;10.03;2.20;;;22.10;99.90;;;;;;5132588;27;20446;-70
2022/07/06 09:45:42;;;;;;;9.00;2.13;;;22.20;93.20;;;;;;5132951;27;20435;-70
2022/07/06 09:48:13;;;;;;;8.80;2.37;;;22.20;90.30;;;;;;5133063;27;20516;-70
2022/07/06 09:50:43;;;;;;;9.70;2.03;;;22.20;97.10;;;;;;5133191;27;20499;-70
2022/07/06 09:53:10;;;;;;;8.20;1.90;;;22.40;90.50;;;;;;5132341;27;20447;-70
2022/07/06 09:55:37;;;;;;;8.30;1.90;;;22.40;88.20;;;;;;5133353;27;20761;-70
2022/07/06 09:58:05;;;;;;;9.50;2.50;;;22.40;88.40;;;;;;5132268;27;20926;-70
2022/07/06 10:00:32;;;;;;;9.63;2.47;;;22.30;86.90;;;;;;5133009;27;20506;-70
2022/07/06 10:03:00;;;;;;;9.00;2.07;;;22.60;84.60;;;;;;5132073;27;20462;-70
2022/07/06 10:05:29;;;;;;;8.77;2.23;;;22.50;83.70;;;;;;5133190;27;20534;-70
2022/07/06 10:07:59;;;;;;;9.40;1.97;;;22.40;79.70;;;;;;5132498;27;20550;-68
2022/07/06 10:10:28;;;;;;;8.73;1.80;;;22.30;84.30;;;;;;5133194;27;20449;-70
2022/07/06 10:12:57;;;;;;;10.73;2.57;;;22.70;82.90;;;;;;5144689;27;20860;-71
2022/07/06 10:15:26;;;;;;;10.57;2.27;;;22.60;81.60;;;;;;5132973;27;20447;-69
2022/07/06 10:17:54;;;;;;;9.10;2.40;;;22.90;83.00;;;;;;5133141;27;20461;-71
2022/07/06 10:20:21;;;;;;;8.93;2.17;;;22.60;78.20;;;;;;5132908;27;20489;-71
2022/07/06 10:22:49;;;;;;;8.80;2.20;;;22.60;76.90;;;;;;5132017;27;20451;-71
2022/07/06 10:25:18;;;;;;;10.83;2.20;;;22.90;72.30;;;;;;5132161;27;20449;-70
2022/07/06 10:27:47;;;;;;;9.30;2.13;;;23.00;67.80;;;;;;5132734;27;20458;-70
2022/07/06 10:30:16;;;;;;;10.30;2.13;;;23.00;63.50;;;;;;5131785;27;20453;-70
2022/07/06 10:32:46;;;;;;;9.50;1.67;;;22.70;66.90;;;;;;5131644;27;20455;-69
2022/07/06 10:35:14;;;;;;;8.43;2.03;;;22.70;67.30;;;;;;5131814;27;20440;-71
2022/07/06 10:37:41;;;;;;;9.57;2.20;;;22.80;68.00;;;;;;5132718;27;20439;-70
2022/07/06 10:42:59;;;;;;;10.33;2.50;;;23.40;62.00;;;;;;5132227;27;20805;-70
2022/07/06 10:45:53;;;;;;;9.20;2.50;;;23.10;61.90;;;;;;5132030;27;20443;-71
2022/07/06 10:48:22;;;;;;;10.30;2.50;;;23.20;62.40;;;;;;5129685;27;20458;-71
2022/07/06 10:50:51;;;;;;;8.80;2.13;;;23.20;59.30;;;;;;5131798;27;20459;-71
2022/07/06 10:53:21;;;;;;;8.70;2.17;;;23.20;56.90;;;;;;5131478;27;20921;-71
2022/07/06 10:55:50;;;;;;;10.70;2.40;;;23.30;55.30;;;;;;5132106;27;20439;-71
2022/07/06 10:58:35;;;;;;;8.97;2.10;;;23.40;54.90;;;;;;5131241;27;20511;-71
2022/07/06 11:01:03;;;;;;;9.10;2.50;;;;;;;;;;5131372;27;20858;-71
2022/07/06 11:03:34;;;;;;;9.60;2.60;;;;;;;;;;5131906;27;20459;-71
2022/07/06 11:06:02;;;;;;;10.60;2.13;;;23.40;57.50;;;;;;5131643;28;20435;-71
2022/07/06 11:08:46;;;;;;;10.50;2.70;;;23.90;34.80;;;;;;5132324;28;20821;-71
2022/07/06 11:11:16;;;;;;;8.77;2.00;;;24.30;43.00;;;;;;5133007;27;20957;-69
2022/07/06 11:13:48;;;;;;;8.87;2.43;;;24.40;36.70;;;;;;5141790;27;20443;-70
2022/07/06 11:16:16;;;;;;;8.53;1.90;;;23.90;35.00;;;;;;5131436;28;20435;-71
2022/07/06 11:18:47;;;;;;;8.90;2.50;;;23.90;36.00;;;;;;5132163;28;20447;-71
2022/07/06 11:21:20;;;;;;;10.17;2.20;;;24.10;36.20;;;;;;5131257;28;20444;-70
2022/07/06 11:23:49;;;;;;;14.60;2.63;;;24.40;36.40;;;;;;5131911;28;20445;-71
2022/07/06 11:26:17;;;;;;;9.70;2.10;;;24.30;32.60;;;;;;5118398;28;20455;-71
2022/07/06 11:28:46;;;;;;;8.20;2.03;;;24.80;33.60;;;;;;5132577;28;20451;-70
2022/07/06 11:31:14;;;;;;;8.90;2.10;;;24.10;32.80;;;;;;5131341;28;20446;-71
2022/07/06 11:33:41;;;;;;;9.27;2.20;;;23.70;31.30;;;;;;5131849;28;20527;-71
2022/07/06 11:36:16;;;;;;;8.83;1.93;;;23.60;31.40;;;;;;5132156;28;20526;-70
2022/07/06 11:38:44;;;;;;;10.57;2.10;;;23.80;33.50;;;;;;5132671;28;20446;-70
2022/07/06 11:41:13;;;;;;;8.63;2.20;;;23.80;33.50;;;;;;5131613;28;20949;-70
2022/07/06 11:43:43;;;;;;;8.87;2.53;;;24.00;31.60;;;;;;5132392;28;20858;-71
2022/07/06 11:46:22;;;;;;;9.10;2.00;;;24.20;32.00;;;;;;5131815;28;20763;-70
2022/07/06 11:48:49;;;;;;;9.07;2.20;;;24.60;28.50;;;;;;5132483;28;20438;-71
2022/07/06 11:51:16;;;;;;;8.80;2.50;;;24.30;26.20;;;;;;5131319;28;20477;-71
2022/07/06 11:53:46;;;;;;;9.10;2.03;;;24.10;27.80;;;;;;5132360;28;20447;-70
2022/07/06 11:56:13;;;;;;;9.90;2.80;;;24.50;26.60;;;;;;5131609;28;20439;-71
2022/07/06 11:58:43;;;;;;;9.13;2.10;;;24.90;24.20;;;;;;5132583;28;20443;-71
2022/07/06 12:01:12;;;;;;;8.57;2.20;;;24.40;24.20;;;;;;5131269;28;20478;-71
2022/07/06 12:03:40;;;;;;;9.03;2.27;;;23.80;23.40;;;;;;5132416;28;20971;-71
2022/07/06 12:06:14;;;;;;;8.60;2.50;;;24.10;24.40;;;;;;5131729;28;20450;-70
2022/07/06 12:08:45;;;;;;;8.17;2.33;;;;;;;;;;5134940;27;20431;-71
2022/07/06 12:11:12;;;;;;;9.27;2.07;;;;;;;;;;5136410;27;20872;-70
2022/07/06 12:13:40;;;;;;;9.60;2.47;;;;;;;;;;5145798;27;20453;-71
2022/07/06 12:16:11;;;;;;;9.73;2.77;;;;;;;;;;5134884;27;20450;-70
2022/07/06 12:18:41;;;;;;;10.77;2.30;;;;;;;;;;5136124;27;20442;-70
2022/07/06 12:21:12;;;;;;;10.53;3.10;;;;;;;;;;5135433;27;20505;-71
2022/07/06 12:23:40;;;;;;;8.73;2.23;;;;;;;;;;5136837;27;20492;-71
2022/07/06 12:26:07;;;;;;;8.60;2.00;;;;;;;;;;5136437;27;20449;-71
2022/07/06 12:28:34;;;;;;;10.10;2.30;;;;;;;;;;5136934;27;20496;-71
2022/07/06 12:31:02;;;;;;;9.07;2.10;;;;;;;;;;5135449;27;20455;-71
2022/07/06 12:33:29;;;;;;;7.90;2.07;;;;;;;;;;5135860;27;20561;-71
2022/07/06 12:35:58;;;;;;;8.27;2.10;;;;;;;;;;5122009;27;20447;-70
2022/07/06 12:38:26;;;;;;;11.10;2.40;;;;;;;;;;5136181;27;20960;-70
2022/07/06 12:40:54;;;;;;;7.70;2.00;;;;;;;;;;5135884;27;20521;-71
2022/07/06 12:43:36;;;;;;;8.47;2.10;;;;;;;;;;5135944;27;20492;-71
2022/07/06 12:46:18;;;;;;;8.87;1.90;;;;;;;;;;5134536;27;20455;-71
2022/07/06 12:48:52;;;;;;;8.70;2.40;;;;;;;;;;5134023;27;20503;-71
2022/07/06 12:51:21;;;;;;;8.80;2.37;;;;;;;;;;5134582;27;20451;-71
2022/07/06 12:53:48;;;;;;;7.40;1.80;;;;;;;;;;5135378;27;20443;-70
2022/07/06 12:56:17;;;;;;;8.00;2.30;;;;;;;;;;5134746;27;20447;-70
2022/07/06 12:58:56;;;;;;;8.70;2.07;;;;;;;;;;5135653;27;20436;-71
2022/07/06 13:01:23;;;;;;;9.30;2.53;;;;;;;;;;5134095;27;20500;-71
2022/07/06 13:03:54;;;;;;;7.87;1.70;;;;;;;;;;5134569;27;20451;-71
2022/07/06 13:06:30;;;;;;;7.70;1.90;;;;;;;;;;5134566;27;20535;-70
2022/07/06 13:08:57;;;;;;;8.60;2.03;;;;;;;;;;5134389;27;20435;-71